Terminal Aerodrome Forecast
Issued by NWS

Current Version | Previous Version | Graphics & Text | Print | Product List | Glossary On
Versions: 1 2 3 4 5 6 7 8 9 10 11 12 13 14 15 16 17 18 19 20 21 22 23 24 25 26 27 28
000
FTUS41 KRNK 180525
TAFLWB
TAF
KLWB 180525Z 1806/1906 29015G22KT 5SM -SHSN OVC025
     FM181100 28014G24KT P6SM -SHSN OVC025
     FM182300 28007KT P6SM SCT030=

USA.gov is the U.S. government's official web portal to all federal, state and local government web resources and services.